createdAt,value
2023-03-24T00:00:54.799Z,2.60
2023-03-24T00:01:54.786Z,3.00
2023-03-24T00:02:54.872Z,2.70
2023-03-24T00:03:54.893Z,3.20
2023-03-24T00:04:54.765Z,2.90
2023-03-24T00:05:54.737Z,2.80
2023-03-24T00:06:54.712Z,2.80
2023-03-24T00:07:55.422Z,2.80
2023-03-24T00:08:54.704Z,2.80
2023-03-24T00:09:54.671Z,2.90
2023-03-24T00:10:54.659Z,2.60
2023-03-24T00:11:54.641Z,2.90
2023-03-24T00:12:54.638Z,3.30
2023-03-24T00:13:54.677Z,3.10
2023-03-24T00:14:54.605Z,3.00
2023-03-24T00:15:54.649Z,3.10
2023-03-24T00:16:54.578Z,3.00
2023-03-24T00:17:54.578Z,3.40
2023-03-24T00:18:54.597Z,3.20
2023-03-24T00:19:54.541Z,3.40
2023-03-24T00:20:54.583Z,3.20
2023-03-24T00:21:54.510Z,3.10
2023-03-24T00:22:54.508Z,3.00
2023-03-24T00:23:54.572Z,3.30
2023-03-24T00:24:54.470Z,3.10
2023-03-24T00:25:54.454Z,3.30
2023-03-24T00:26:54.438Z,3.60
2023-03-24T00:27:54.430Z,3.50
2023-03-24T00:28:54.435Z,3.50
2023-03-24T00:29:54.402Z,3.20
2023-03-24T00:30:54.405Z,3.10
2023-03-24T00:31:54.371Z,3.10
2023-03-24T00:32:54.427Z,3.20
2023-03-24T00:33:54.367Z,3.20
2023-03-24T00:34:54.349Z,3.30
2023-03-24T00:35:54.374Z,3.30
2023-03-24T00:36:54.350Z,3.30
2023-03-24T00:37:54.297Z,3.60
2023-03-24T00:38:54.300Z,3.30
2023-03-24T00:39:54.264Z,3.50
2023-03-24T00:40:54.255Z,3.70
2023-03-24T00:41:54.238Z,3.60
2023-03-24T00:42:54.229Z,3.60
2023-03-24T00:43:54.226Z,3.60
2023-03-24T00:44:54.196Z,3.40
2023-03-24T00:45:54.182Z,3.70
2023-03-24T00:46:54.207Z,3.90
2023-03-24T00:47:54.656Z,4.00
2023-03-24T00:48:54.164Z,3.90
2023-03-24T00:49:54.137Z,3.60
2023-03-24T00:50:54.129Z,3.40
2023-03-24T00:51:54.107Z,3.20
2023-03-24T00:52:54.119Z,3.00
2023-03-24T00:53:54.094Z,3.40
2023-03-24T00:54:54.075Z,3.20
2023-03-24T00:55:54.057Z,3.50
2023-03-24T00:56:54.067Z,3.30
2023-03-24T00:57:54.022Z,3.20
2023-03-24T00:58:54.028Z,3.10
2023-03-24T00:59:53.993Z,3.00
2023-03-24T01:00:54.062Z,3.10
2023-03-24T01:01:54.001Z,3.00
2023-03-24T01:02:54.157Z,3.20
2023-03-24T01:03:53.969Z,3.00
2023-03-24T01:04:53.926Z,3.20
2023-03-24T01:05:53.909Z,3.00
2023-03-24T01:06:53.899Z,2.70
2023-03-24T01:07:53.880Z,3.30
2023-03-24T01:08:53.934Z,2.60
2023-03-24T01:09:53.870Z,3.00
2023-03-24T01:10:53.841Z,2.80
2023-03-24T01:11:53.826Z,2.60
2023-03-24T01:12:53.813Z,2.70
2023-03-24T01:13:53.799Z,2.50
2023-03-24T01:14:53.828Z,2.80
2023-03-24T01:15:53.816Z,2.60
2023-03-24T01:16:53.760Z,2.50
2023-03-24T01:17:53.777Z,2.60
2023-03-24T01:18:53.730Z,2.70
2023-03-24T01:19:53.737Z,2.40
2023-03-24T01:20:53.706Z,2.50
2023-03-24T01:21:53.686Z,2.50
2023-03-24T01:22:53.691Z,2.50
2023-03-24T01:23:53.661Z,2.50
2023-03-24T01:24:53.682Z,2.40
2023-03-24T01:25:53.634Z,2.50
2023-03-24T01:26:53.621Z,2.50
2023-03-24T01:27:53.602Z,2.70
2023-03-24T01:28:53.593Z,2.50
2023-03-24T01:29:53.589Z,2.30
2023-03-24T01:30:53.566Z,2.40
2023-03-24T01:31:53.587Z,2.40
2023-03-24T01:32:53.662Z,2.20
2023-03-24T01:33:53.531Z,2.50
2023-03-24T01:34:53.525Z,2.20
2023-03-24T01:35:53.530Z,2.30
2023-03-24T01:36:53.482Z,2.20
2023-03-24T01:37:53.466Z,2.20
2023-03-24T01:38:53.456Z,2.30
2023-03-24T01:39:53.457Z,2.50
2023-03-24T01:40:53.447Z,2.30
2023-03-24T01:41:53.424Z,2.30
2023-03-24T01:42:53.402Z,2.30
2023-03-24T01:43:53.386Z,2.50
2023-03-24T01:44:53.393Z,2.10
2023-03-24T01:45:53.385Z,2.30
2023-03-24T01:46:53.349Z,2.40
2023-03-24T01:47:53.419Z,2.40
2023-03-24T01:48:53.337Z,2.40
2023-03-24T01:49:53.345Z,2.10
2023-03-24T01:50:53.293Z,2.30
2023-03-24T01:51:53.285Z,2.10
2023-03-24T01:52:53.273Z,2.30
2023-03-24T01:53:53.275Z,2.40
2023-03-24T01:54:53.279Z,2.20
2023-03-24T01:55:53.227Z,2.60
2023-03-24T01:56:53.307Z,2.40
2023-03-24T01:57:53.199Z,2.40
2023-03-24T01:58:53.191Z,2.10
2023-03-24T01:59:53.189Z,2.30
2023-03-24T02:00:53.201Z,2.50
2023-03-24T02:01:53.145Z,2.50
2023-03-24T02:02:53.228Z,2.40
2023-03-24T02:03:53.146Z,2.60
2023-03-24T02:04:53.123Z,2.60
2023-03-24T02:05:53.101Z,2.80
2023-03-24T02:06:53.085Z,2.60
2023-03-24T02:07:53.066Z,2.90
2023-03-24T02:08:53.058Z,3.00
2023-03-24T02:09:53.059Z,3.20
2023-03-24T02:10:53.024Z,3.20
2023-03-24T02:11:53.011Z,3.10
2023-03-24T02:12:53.035Z,3.40
2023-03-24T02:13:52.987Z,3.10
2023-03-24T02:14:52.975Z,3.10
2023-03-24T02:15:53.011Z,3.20
2023-03-24T02:16:52.942Z,3.20
2023-03-24T02:17:52.990Z,2.90
2023-03-24T02:18:52.915Z,3.00
2023-03-24T02:19:52.905Z,3.10
2023-03-24T02:20:52.914Z,3.10
2023-03-24T02:21:52.879Z,3.00
2023-03-24T02:22:52.862Z,2.80
2023-03-24T02:23:52.853Z,3.10
2023-03-24T02:24:52.832Z,2.70
2023-03-24T02:25:52.842Z,2.90
2023-03-24T02:26:52.809Z,2.90
2023-03-24T02:27:52.803Z,3.00
2023-03-24T02:28:52.810Z,2.70
2023-03-24T02:29:52.771Z,2.80
2023-03-24T02:30:52.769Z,2.80
2023-03-24T02:31:52.776Z,2.60
2023-03-24T02:32:52.748Z,2.90
2023-03-24T02:33:52.713Z,2.70
2023-03-24T02:34:52.701Z,2.60
2023-03-24T02:35:52.725Z,3.10
2023-03-24T02:36:52.676Z,2.90
2023-03-24T02:37:52.661Z,2.70
2023-03-24T02:38:52.647Z,2.50
2023-03-24T02:39:52.635Z,2.90
2023-03-24T02:40:52.633Z,2.70
2023-03-24T02:41:52.608Z,2.60
2023-03-24T02:42:52.591Z,2.70
2023-03-24T02:43:52.586Z,2.50
2023-03-24T02:44:52.595Z,2.60
2023-03-24T02:45:52.601Z,2.70
2023-03-24T02:46:52.538Z,2.50
2023-03-24T02:47:52.568Z,2.70
2023-03-24T02:48:52.533Z,2.60
2023-03-24T02:49:52.525Z,2.80
2023-03-24T02:50:52.522Z,2.20
2023-03-24T02:51:52.484Z,2.40
2023-03-24T02:52:52.490Z,2.60
2023-03-24T02:53:52.459Z,2.60
2023-03-24T02:54:52.446Z,3.30
2023-03-24T02:55:52.462Z,2.60
2023-03-24T02:56:52.510Z,2.70
2023-03-24T02:57:52.402Z,2.40
2023-03-24T02:58:52.369Z,2.50
2023-03-24T02:59:52.375Z,2.50
2023-03-24T03:00:52.373Z,2.20
2023-03-24T03:01:52.354Z,2.90
2023-03-24T03:02:52.329Z,2.60
2023-03-24T03:03:52.370Z,2.50
2023-03-24T03:04:52.296Z,2.80
2023-03-24T03:05:52.298Z,2.60
2023-03-24T03:06:52.264Z,2.60
2023-03-24T03:07:52.250Z,2.60
2023-03-24T03:08:52.245Z,2.60
2023-03-24T03:09:52.223Z,2.80
2023-03-24T03:10:52.222Z,2.40
2023-03-24T03:11:52.191Z,2.30
2023-03-24T03:12:52.178Z,2.50
2023-03-24T03:13:52.181Z,2.40
2023-03-24T03:14:52.155Z,2.60
2023-03-24T03:15:52.191Z,2.50
2023-03-24T03:16:52.150Z,2.40
2023-03-24T03:17:52.167Z,2.40
2023-03-24T03:18:52.113Z,2.40
2023-03-24T03:19:52.101Z,2.70
2023-03-24T03:20:52.095Z,2.30
2023-03-24T03:21:52.070Z,2.30
2023-03-24T03:22:52.055Z,2.40
2023-03-24T03:23:52.041Z,2.00
2023-03-24T03:24:52.022Z,2.20
2023-03-24T03:25:52.030Z,2.30
2023-03-24T03:26:52.002Z,2.10
2023-03-24T03:27:51.986Z,2.40
2023-03-24T03:28:51.980Z,2.30
2023-03-24T03:29:51.966Z,2.50
2023-03-24T03:30:52.051Z,2.40
2023-03-24T03:31:51.935Z,2.50
2023-03-24T03:32:52.048Z,2.20
2023-03-24T03:33:51.908Z,2.30
2023-03-24T03:34:51.893Z,2.20
2023-03-24T03:35:51.882Z,2.00
2023-03-24T03:36:51.890Z,2.20
2023-03-24T03:37:51.863Z,2.40
2023-03-24T03:38:51.850Z,2.50
2023-03-24T03:39:51.830Z,2.20
2023-03-24T03:40:51.817Z,2.50
2023-03-24T03:41:51.827Z,2.20
2023-03-24T03:42:51.786Z,2.50
2023-03-24T03:43:51.785Z,2.40
2023-03-24T03:44:51.772Z,2.70
2023-03-24T03:45:51.797Z,2.20
2023-03-24T03:46:51.756Z,2.30
2023-03-24T03:47:51.743Z,2.30
2023-03-24T03:48:51.733Z,2.80
2023-03-24T03:49:51.710Z,2.90
2023-03-24T03:50:59.900Z,2.30
2023-03-24T03:51:52.707Z,2.40
2023-03-24T03:52:51.663Z,2.30
2023-03-24T03:53:51.649Z,2.30
2023-03-24T03:54:51.672Z,2.50
2023-03-24T03:55:51.635Z,2.40
2023-03-24T03:56:51.676Z,2.40
2023-03-24T03:57:51.591Z,2.40
2023-03-24T03:58:51.578Z,2.40
2023-03-24T03:59:51.565Z,2.80
2023-03-24T04:00:51.557Z,2.20
2023-03-24T04:01:51.562Z,2.10
2023-03-24T04:02:51.610Z,2.50
2023-03-24T04:03:51.557Z,2.40
2023-03-24T04:05:03.210Z,2.20
2023-03-24T04:05:52.531Z,2.30
2023-03-24T04:06:51.486Z,2.50
2023-03-24T04:07:51.456Z,2.40
2023-03-24T04:08:51.452Z,2.20
2023-03-24T04:09:51.434Z,2.30
2023-03-24T04:10:51.416Z,2.50
2023-03-24T04:11:51.423Z,2.70
2023-03-24T04:12:51.408Z,2.60
2023-03-24T04:13:51.399Z,2.50
2023-03-24T04:14:51.384Z,2.50
2023-03-24T04:15:51.406Z,2.50
2023-03-24T04:16:51.360Z,2.50
2023-03-24T04:17:51.338Z,2.40
2023-03-24T04:18:51.315Z,2.60
2023-03-24T04:19:51.297Z,2.60
2023-03-24T04:20:51.307Z,2.50
2023-03-24T04:21:51.296Z,2.90
2023-03-24T04:22:51.256Z,2.70
2023-03-24T04:23:51.247Z,2.60
2023-03-24T04:24:51.235Z,2.90
2023-03-24T04:25:51.228Z,2.70
2023-03-24T04:26:51.222Z,3.10
2023-03-24T04:27:51.195Z,2.90
2023-03-24T04:28:51.178Z,3.10
2023-03-24T04:29:51.169Z,3.10
2023-03-24T04:30:51.148Z,3.20
2023-03-24T04:31:51.214Z,2.60
2023-03-24T04:32:51.165Z,3.30
2023-03-24T04:33:51.120Z,3.10
2023-03-24T04:34:51.137Z,3.10
2023-03-24T04:35:51.131Z,2.90
2023-03-24T04:36:51.121Z,3.00
2023-03-24T04:37:51.069Z,3.00
2023-03-24T04:38:51.048Z,3.10
2023-03-24T04:39:51.039Z,2.90
2023-03-24T04:40:51.025Z,3.50
2023-03-24T04:41:51.070Z,3.30
2023-03-24T04:42:50.993Z,3.50
2023-03-24T04:43:50.976Z,3.00
2023-03-24T04:44:50.981Z,3.20
2023-03-24T04:45:50.985Z,3.10
2023-03-24T04:46:50.942Z,2.90
2023-03-24T04:47:51.017Z,3.00
2023-03-24T04:48:50.914Z,3.50
2023-03-24T04:49:50.917Z,3.30
2023-03-24T04:50:50.893Z,3.40
2023-03-24T04:51:50.877Z,3.10
2023-03-24T04:52:50.933Z,3.50
2023-03-24T04:53:50.857Z,3.60
2023-03-24T04:54:50.844Z,3.60
2023-03-24T04:55:50.825Z,3.70
2023-03-24T04:56:50.932Z,3.90
2023-03-24T04:57:50.811Z,3.30
2023-03-24T04:58:50.778Z,3.70
2023-03-24T04:59:50.771Z,3.60
2023-03-24T05:00:50.778Z,3.70
2023-03-24T05:01:50.743Z,2.90
2023-03-24T05:02:50.769Z,3.40
2023-03-24T05:03:50.744Z,4.10
2023-03-24T05:04:50.698Z,4.60
2023-03-24T05:05:50.711Z,3.80
2023-03-24T05:06:50.709Z,4.40
2023-03-24T05:07:50.673Z,4.70
2023-03-24T05:08:50.688Z,4.30
2023-03-24T05:09:50.645Z,4.20
2023-03-24T05:10:50.622Z,4.30
2023-03-24T05:11:50.637Z,5.10
2023-03-24T05:12:50.635Z,4.40
2023-03-24T05:13:50.580Z,4.50
2023-03-24T05:14:50.564Z,5.70
2023-03-24T05:15:50.548Z,5.40
2023-03-24T05:16:50.588Z,5.60
2023-03-24T05:17:50.569Z,5.00
2023-03-24T05:18:50.528Z,4.90
2023-03-24T05:19:50.505Z,5.80
2023-03-24T05:20:50.489Z,6.10
2023-03-24T05:21:50.486Z,6.40
2023-03-24T05:22:50.500Z,6.20
2023-03-24T05:23:50.446Z,6.40
2023-03-24T05:24:50.448Z,6.00
2023-03-24T05:25:50.418Z,5.90
2023-03-24T05:26:50.402Z,6.50
2023-03-24T05:27:50.402Z,6.30
2023-03-24T05:28:50.374Z,6.10
2023-03-24T05:29:50.371Z,6.10
2023-03-24T05:30:50.384Z,6.00
2023-03-24T05:31:50.334Z,7.30
2023-03-24T05:32:50.361Z,7.50
2023-03-24T05:33:50.316Z,6.30
2023-03-24T05:34:50.304Z,7.80
2023-03-24T05:35:50.318Z,8.60
2023-03-24T05:36:50.277Z,8.60
2023-03-24T05:37:50.286Z,8.00
2023-03-24T05:38:50.238Z,8.40
2023-03-24T05:39:50.228Z,7.60
2023-03-24T05:40:50.225Z,8.20
2023-03-24T05:41:50.202Z,8.60
2023-03-24T05:42:50.202Z,8.00
2023-03-24T05:43:50.173Z,8.60
2023-03-24T05:44:50.157Z,7.90
2023-03-24T05:45:50.192Z,9.00
2023-03-24T05:46:50.156Z,8.90
2023-03-24T05:47:50.172Z,8.40
2023-03-24T05:48:50.100Z,9.30
2023-03-24T05:49:50.091Z,8.80
2023-03-24T05:50:50.076Z,8.60
2023-03-24T05:51:50.063Z,8.70
2023-03-24T05:52:50.056Z,7.40
2023-03-24T05:53:50.051Z,7.70
2023-03-24T05:54:50.019Z,8.80
2023-03-24T05:55:50.024Z,8.90
2023-03-24T05:56:50.072Z,8.80
2023-03-24T05:57:49.982Z,9.20
2023-03-24T05:58:49.983Z,7.00
2023-03-24T05:59:49.980Z,7.20
2023-03-24T06:00:49.965Z,7.40
2023-03-24T06:01:49.942Z,7.20
2023-03-24T06:02:49.979Z,7.40
2023-03-24T06:03:49.955Z,7.30
2023-03-24T06:04:49.882Z,7.50
2023-03-24T06:05:49.870Z,7.30
2023-03-24T06:06:49.859Z,6.70
2023-03-24T06:07:49.845Z,6.70
2023-03-24T06:08:49.851Z,6.30
2023-03-24T06:09:49.828Z,6.50
2023-03-24T06:10:49.862Z,5.80
2023-03-24T06:11:49.798Z,5.80
2023-03-24T06:12:49.845Z,5.90
2023-03-24T06:13:49.786Z,5.40
2023-03-24T06:14:49.749Z,5.10
2023-03-24T06:15:49.798Z,4.30
2023-03-24T06:16:49.733Z,4.60
2023-03-24T06:17:49.746Z,4.60
2023-03-24T06:18:49.709Z,4.50
2023-03-24T06:19:49.943Z,4.40
2023-03-24T06:20:49.667Z,5.00
2023-03-24T06:21:49.657Z,4.60
2023-03-24T06:22:49.667Z,4.40
2023-03-24T06:23:49.640Z,4.20
2023-03-24T06:24:49.613Z,4.50
2023-03-24T06:25:49.615Z,4.30
2023-03-24T06:26:49.586Z,4.10
2023-03-24T06:27:49.576Z,3.80
2023-03-24T06:28:49.598Z,4.20
2023-03-24T06:29:49.544Z,3.80
2023-03-24T06:30:49.613Z,3.90
2023-03-24T06:31:49.533Z,4.10
2023-03-24T06:32:49.525Z,4.30
2023-03-24T06:33:49.507Z,3.90
2023-03-24T06:34:49.478Z,4.00
2023-03-24T06:35:49.479Z,4.30
2023-03-24T06:36:49.449Z,4.20
2023-03-24T06:37:49.444Z,4.00
2023-03-24T06:38:50.882Z,3.70
2023-03-24T06:39:49.406Z,4.00
2023-03-24T06:40:49.397Z,3.40
2023-03-24T06:41:49.385Z,3.80
2023-03-24T06:42:49.403Z,3.90
2023-03-24T06:43:49.377Z,3.60
2023-03-24T06:44:49.400Z,3.60
2023-03-24T06:45:49.527Z,3.60
2023-03-24T06:46:49.350Z,3.50
2023-03-24T06:47:49.355Z,3.40
2023-03-24T06:48:49.367Z,3.30
2023-03-24T06:49:49.273Z,4.10
2023-03-24T06:50:49.269Z,3.50
2023-03-24T06:51:49.247Z,3.30
2023-03-24T06:52:49.232Z,3.70
2023-03-24T06:53:49.219Z,3.40
2023-03-24T06:54:49.224Z,3.30
2023-03-24T06:55:49.192Z,3.50
2023-03-24T06:56:49.206Z,3.40
2023-03-24T06:57:49.171Z,3.30
2023-03-24T06:58:49.172Z,3.20
2023-03-24T06:59:49.154Z,3.30
2023-03-24T07:00:49.152Z,2.90
2023-03-24T07:01:49.172Z,3.10
2023-03-24T07:02:49.185Z,2.50
2023-03-24T07:03:49.138Z,2.70
2023-03-24T07:04:49.093Z,2.90
2023-03-24T07:05:49.059Z,3.20
2023-03-24T07:07:01.269Z,3.00
2023-03-24T07:08:49.024Z,3.10
2023-03-24T07:09:49.029Z,3.10
2023-03-24T07:10:48.999Z,3.20
2023-03-24T07:11:48.988Z,3.10
2023-03-24T07:12:48.968Z,2.90
2023-03-24T07:13:48.956Z,3.10
2023-03-24T07:14:48.972Z,3.00
2023-03-24T07:15:48.929Z,2.90
2023-03-24T07:16:48.961Z,3.10
2023-03-24T07:17:48.917Z,3.00
2023-03-24T07:18:48.888Z,3.20
2023-03-24T07:19:48.896Z,3.40
2023-03-24T07:20:48.864Z,3.00
2023-03-24T07:21:48.848Z,3.10
2023-03-24T07:22:48.846Z,3.10
2023-03-24T07:23:49.199Z,3.20
2023-03-24T07:24:48.832Z,3.10
2023-03-24T07:25:48.798Z,3.10
2023-03-24T07:26:48.794Z,2.60
2023-03-24T07:27:48.779Z,2.90
2023-03-24T07:28:49.085Z,3.10
2023-03-24T07:29:48.769Z,3.10
2023-03-24T07:30:48.731Z,3.00
2023-03-24T07:31:48.773Z,3.10
2023-03-24T07:32:48.731Z,3.00
2023-03-24T07:33:48.871Z,2.90
2023-03-24T07:34:48.698Z,3.00
2023-03-24T07:35:49.033Z,3.00
2023-03-24T07:36:48.652Z,2.90
2023-03-24T07:37:48.636Z,2.70
2023-03-24T07:38:48.635Z,2.70
2023-03-24T07:39:48.624Z,2.80
2023-03-24T07:40:48.594Z,2.80
2023-03-24T07:41:48.601Z,3.20
2023-03-24T07:42:48.569Z,2.90
2023-03-24T07:43:48.556Z,3.00
2023-03-24T07:44:48.566Z,3.00
2023-03-24T07:45:49.029Z,3.10
2023-03-24T07:46:48.569Z,3.30
2023-03-24T07:47:48.517Z,2.80
2023-03-24T07:48:48.511Z,2.90
2023-03-24T07:49:48.497Z,2.90
2023-03-24T07:50:48.467Z,3.00
2023-03-24T07:51:48.453Z,3.20
2023-03-24T07:52:48.439Z,3.00
2023-03-24T07:53:48.444Z,3.00
2023-03-24T07:54:48.437Z,2.80
2023-03-24T07:55:48.954Z,3.00
2023-03-24T07:56:48.406Z,3.20
2023-03-24T07:57:48.396Z,3.00
2023-03-24T07:58:48.376Z,2.60
2023-03-24T07:59:48.629Z,3.00
2023-03-24T08:00:48.489Z,3.10
2023-03-24T08:01:48.658Z,3.30
2023-03-24T08:02:48.411Z,3.00
2023-03-24T08:03:48.432Z,3.20
2023-03-24T08:04:48.343Z,2.90
2023-03-24T08:05:48.409Z,3.00
2023-03-24T08:06:48.260Z,3.20
2023-03-24T08:07:48.260Z,3.30
2023-03-24T08:08:48.232Z,3.30
2023-03-24T08:09:48.212Z,3.10
2023-03-24T08:10:48.340Z,3.20
2023-03-24T08:11:48.187Z,3.20
2023-03-24T08:12:48.178Z,3.40
2023-03-24T08:13:48.163Z,2.80
2023-03-24T08:14:48.155Z,3.30
2023-03-24T08:15:48.331Z,3.30
2023-03-24T08:16:48.162Z,3.30
2023-03-24T08:17:48.170Z,3.20
2023-03-24T08:18:48.098Z,3.30
2023-03-24T08:19:59.020Z,2.90
2023-03-24T08:20:48.110Z,3.10
2023-03-24T08:21:48.061Z,2.90
2023-03-24T08:22:48.043Z,2.70
2023-03-24T08:23:48.042Z,3.20
2023-03-24T08:24:48.019Z,3.20
2023-03-24T08:25:48.221Z,2.90
2023-03-24T08:26:48.005Z,3.30
2023-03-24T08:27:47.977Z,2.90
2023-03-24T08:28:47.975Z,3.20
2023-03-24T08:29:47.949Z,2.90
2023-03-24T08:30:48.120Z,2.90
2023-03-24T08:31:47.934Z,3.00
2023-03-24T08:32:47.960Z,3.40
2023-03-24T08:33:47.892Z,3.10
2023-03-24T08:34:47.896Z,3.00
2023-03-24T08:35:48.158Z,3.00
2023-03-24T08:36:47.885Z,3.10
2023-03-24T08:37:47.852Z,2.70
2023-03-24T08:38:47.828Z,3.00
2023-03-24T08:39:47.815Z,2.80
2023-03-24T08:40:47.823Z,2.90
2023-03-24T08:41:47.790Z,3.00
2023-03-24T08:42:47.777Z,2.80
2023-03-24T08:43:47.764Z,2.90
2023-03-24T08:44:47.750Z,2.90
2023-03-24T08:45:47.937Z,2.80
2023-03-24T08:46:47.771Z,2.70
2023-03-24T08:47:47.762Z,2.80
2023-03-24T08:48:47.701Z,2.90
2023-03-24T08:49:47.683Z,2.80
2023-03-24T08:50:47.689Z,2.90
2023-03-24T08:51:47.654Z,2.90
2023-03-24T08:52:47.751Z,2.50
2023-03-24T08:53:47.629Z,2.90
2023-03-24T08:54:47.613Z,3.10
2023-03-24T08:55:47.793Z,2.60
2023-03-24T08:56:47.667Z,3.00
2023-03-24T08:57:47.578Z,2.70
2023-03-24T08:58:47.574Z,3.10
2023-03-24T08:59:49.530Z,2.90
2023-03-24T09:00:47.563Z,2.70
2023-03-24T09:01:47.574Z,3.00
2023-03-24T09:02:47.540Z,2.60
2023-03-24T09:03:47.489Z,2.70
2023-03-24T09:04:47.521Z,2.90
2023-03-24T09:05:47.486Z,3.00
2023-03-24T09:06:47.455Z,3.00
2023-03-24T09:07:47.448Z,2.90
2023-03-24T09:08:47.445Z,2.70
2023-03-24T09:09:47.418Z,2.70
2023-03-24T09:10:47.419Z,2.60
2023-03-24T09:11:47.388Z,2.70
2023-03-24T09:12:47.373Z,2.40
2023-03-24T09:13:47.358Z,2.90
2023-03-24T09:14:47.347Z,2.80
2023-03-24T09:15:47.629Z,2.40
2023-03-24T09:16:47.322Z,2.90
2023-03-24T09:17:47.335Z,2.70
2023-03-24T09:18:47.294Z,2.70
2023-03-24T09:19:47.346Z,2.60
2023-03-24T09:20:47.555Z,2.70
2023-03-24T09:21:47.253Z,2.40
2023-03-24T09:22:47.243Z,2.50
2023-03-24T09:23:47.229Z,2.60
2023-03-24T09:24:47.245Z,2.20
2023-03-24T09:25:47.479Z,2.60
2023-03-24T09:26:47.187Z,2.40
2023-03-24T09:27:47.194Z,2.40
2023-03-24T09:28:47.174Z,2.30
2023-03-24T09:29:47.145Z,2.40
2023-03-24T09:30:47.182Z,2.50
2023-03-24T09:31:47.228Z,2.30
2023-03-24T09:32:47.185Z,2.20
2023-03-24T09:33:47.140Z,2.40
2023-03-24T09:34:47.088Z,2.60
2023-03-24T09:35:47.174Z,2.90
2023-03-24T09:36:47.073Z,3.00
2023-03-24T09:37:47.060Z,3.10
2023-03-24T09:38:47.025Z,3.30
2023-03-24T09:39:47.023Z,3.40
2023-03-24T09:40:47.343Z,2.50
2023-03-24T09:41:47.008Z,1.40
2023-03-24T09:42:46.974Z,0.90
2023-03-24T09:43:46.963Z,1.00
2023-03-24T09:44:47.768Z,1.00
2023-03-24T09:45:47.138Z,1.00
2023-03-24T09:46:47.011Z,0.80
2023-03-24T09:47:46.963Z,1.00
2023-03-24T09:48:46.892Z,1.10
2023-03-24T09:49:46.882Z,1.00
2023-03-24T09:50:46.866Z,1.00
2023-03-24T09:51:46.868Z,0.90
2023-03-24T09:52:46.845Z,0.80
2023-03-24T09:53:46.824Z,0.70
2023-03-24T09:54:46.814Z,0.60
2023-03-24T09:55:46.993Z,0.90
2023-03-24T09:56:48.670Z,0.50
2023-03-24T09:57:46.780Z,0.70
2023-03-24T09:58:46.761Z,0.60
2023-03-24T09:59:46.754Z,1.00
2023-03-24T10:00:46.854Z,1.00
2023-03-24T10:01:46.743Z,0.70
2023-03-24T10:02:47.701Z,0.40
2023-03-24T10:03:46.840Z,1.30
2023-03-24T10:04:46.756Z,0.80
2023-03-24T10:05:46.911Z,0.80
2023-03-24T10:06:46.681Z,0.80
2023-03-24T10:07:46.645Z,0.90
2023-03-24T10:08:46.655Z,0.90
2023-03-24T10:09:46.613Z,0.80
2023-03-24T10:10:46.812Z,0.60
2023-03-24T10:11:46.621Z,0.90
2023-03-24T10:12:46.621Z,0.60
2023-03-24T10:13:46.567Z,0.80
2023-03-24T10:14:46.553Z,0.60
2023-03-24T10:15:46.562Z,0.70
2023-03-24T10:16:46.551Z,0.70
2023-03-24T10:17:46.531Z,0.80
2023-03-24T10:18:46.497Z,0.70
2023-03-24T10:19:46.483Z,0.70
2023-03-24T10:20:46.479Z,0.90
2023-03-24T10:21:46.504Z,0.90
2023-03-24T10:22:46.442Z,0.90
2023-03-24T10:23:46.467Z,1.10
2023-03-24T10:24:46.428Z,0.90
2023-03-24T10:25:46.489Z,2.20
2023-03-24T10:26:46.423Z,1.40
2023-03-24T10:27:46.382Z,0.90
2023-03-24T10:28:46.385Z,1.30
2023-03-24T10:29:46.359Z,1.40
2023-03-24T10:30:48.241Z,1.60
2023-03-24T10:31:46.382Z,1.60
2023-03-24T10:32:46.362Z,1.70
2023-03-24T10:33:46.300Z,1.90
2023-03-24T10:34:46.289Z,1.80
2023-03-24T10:35:46.382Z,2.00
2023-03-24T10:36:46.258Z,2.20
2023-03-24T10:37:46.263Z,2.10
2023-03-24T10:38:46.244Z,2.00
2023-03-24T10:39:46.225Z,2.40
2023-03-24T10:40:46.208Z,2.10
2023-03-24T10:41:46.197Z,1.90
2023-03-24T10:42:46.200Z,1.90
2023-03-24T10:43:46.171Z,1.50
2023-03-24T10:44:46.219Z,1.60
2023-03-24T10:45:46.258Z,1.80
2023-03-24T10:46:46.131Z,1.80
2023-03-24T10:47:46.138Z,1.70
2023-03-24T10:48:46.114Z,1.60
2023-03-24T10:49:46.093Z,1.60
2023-03-24T10:50:46.078Z,1.60
2023-03-24T10:51:46.069Z,1.70
2023-03-24T10:52:46.072Z,1.50
2023-03-24T10:53:46.044Z,1.90
2023-03-24T10:54:46.024Z,1.80
2023-03-24T10:55:46.274Z,1.90
2023-03-24T10:56:46.075Z,1.60
2023-03-24T10:57:46.000Z,1.60
2023-03-24T10:58:45.983Z,1.30
2023-03-24T10:59:45.954Z,1.50
2023-03-24T11:00:46.063Z,1.60
2023-03-24T11:01:46.056Z,1.60
2023-03-24T11:02:46.057Z,1.60
2023-03-24T11:03:45.990Z,2.10
2023-03-24T11:04:45.888Z,1.60
2023-03-24T11:05:46.095Z,1.60
2023-03-24T11:06:45.856Z,1.70
2023-03-24T11:07:45.862Z,2.00
2023-03-24T11:08:45.827Z,1.60
2023-03-24T11:09:45.832Z,1.60
2023-03-24T11:10:45.801Z,1.70
2023-03-24T11:11:45.795Z,1.40
2023-03-24T11:12:45.792Z,1.40
2023-03-24T11:13:45.759Z,1.60
2023-03-24T11:14:45.744Z,1.30
2023-03-24T11:15:45.842Z,1.50
2023-03-24T11:16:45.767Z,1.80
2023-03-24T11:17:45.756Z,1.60
2023-03-24T11:18:45.706Z,1.60
2023-03-24T11:19:45.693Z,1.60
2023-03-24T11:20:45.666Z,1.60
2023-03-24T11:21:45.670Z,1.60
2023-03-24T11:22:45.656Z,1.50
2023-03-24T11:23:45.636Z,1.60
2023-03-24T11:24:45.622Z,1.50
2023-03-24T11:25:45.602Z,1.40
2023-03-24T11:26:45.586Z,1.40
2023-03-24T11:27:45.589Z,1.40
2023-03-24T11:28:45.562Z,1.30
2023-03-24T11:29:45.550Z,1.30
2023-03-24T11:30:45.819Z,1.30
2023-03-24T11:31:45.527Z,1.40
2023-03-24T11:32:45.591Z,1.20
2023-03-24T11:33:45.505Z,1.00
2023-03-24T11:34:45.494Z,1.20
2023-03-24T11:35:50.367Z,1.10
2023-03-24T11:36:47.286Z,1.20
2023-03-24T11:37:45.467Z,1.00
2023-03-24T11:38:45.440Z,1.00
2023-03-24T11:39:45.427Z,1.10
2023-03-24T11:40:45.400Z,1.10
2023-03-24T11:41:45.395Z,1.30
2023-03-24T11:42:46.057Z,1.40
2023-03-24T11:43:45.370Z,1.30
2023-03-24T11:44:45.363Z,1.10
2023-03-24T11:45:45.337Z,0.90
2023-03-24T11:46:45.359Z,1.00
2023-03-24T11:47:45.377Z,1.10
2023-03-24T11:48:45.382Z,1.10
2023-03-24T11:49:45.287Z,1.00
2023-03-24T11:50:45.268Z,1.10
2023-03-24T11:51:45.288Z,1.10
2023-03-24T11:52:45.254Z,1.00
2023-03-24T11:53:45.253Z,1.20
2023-03-24T11:54:45.216Z,0.90
2023-03-24T11:55:45.208Z,1.00
2023-03-24T11:56:45.204Z,1.10
2023-03-24T11:57:45.194Z,1.00
2023-03-24T11:58:45.189Z,0.90
2023-03-24T11:59:45.174Z,0.70
2023-03-24T12:00:45.146Z,0.90
2023-03-24T12:01:45.130Z,0.90
2023-03-24T12:02:45.161Z,0.80
2023-03-24T12:03:45.193Z,0.90
2023-03-24T12:04:45.122Z,1.10
2023-03-24T12:05:45.107Z,1.40
2023-03-24T12:06:45.057Z,1.10
2023-03-24T12:07:45.052Z,1.10
2023-03-24T12:08:45.093Z,0.90
2023-03-24T12:09:45.030Z,1.00
2023-03-24T12:10:45.008Z,0.90
2023-03-24T12:11:45.001Z,0.90
2023-03-24T12:12:44.984Z,0.80
2023-03-24T12:13:45.002Z,1.00
2023-03-24T12:14:44.964Z,1.70
2023-03-24T12:15:44.985Z,1.00
2023-03-24T12:16:45.091Z,1.30
2023-03-24T12:17:44.949Z,1.10
2023-03-24T12:18:44.921Z,1.00
2023-03-24T12:19:44.920Z,0.90
2023-03-24T12:20:44.912Z,1.60
2023-03-24T12:21:44.865Z,0.90
2023-03-24T12:22:44.848Z,0.80
2023-03-24T12:23:44.889Z,1.20
2023-03-24T12:24:44.835Z,1.40
2023-03-24T12:25:44.820Z,1.30
2023-03-24T12:26:44.803Z,1.10
2023-03-24T12:27:44.785Z,1.20
2023-03-24T12:28:44.792Z,1.10
2023-03-24T12:29:44.762Z,0.70
2023-03-24T12:30:44.748Z,0.90
2023-03-24T12:31:44.773Z,0.80
2023-03-24T12:32:44.783Z,0.90
2023-03-24T12:33:44.724Z,0.80
2023-03-24T12:34:44.707Z,0.80
2023-03-24T12:35:44.714Z,0.90
2023-03-24T12:36:44.683Z,0.70
2023-03-24T12:37:44.656Z,0.80
2023-03-24T12:38:44.655Z,0.80
2023-03-24T12:39:44.639Z,0.80
2023-03-24T12:40:44.633Z,0.90
2023-03-24T12:41:44.597Z,0.80
2023-03-24T12:42:44.587Z,0.80
2023-03-24T12:43:44.599Z,0.80
2023-03-24T12:44:44.586Z,0.80
2023-03-24T12:45:44.572Z,0.90
2023-03-24T12:46:48.375Z,0.80
2023-03-24T12:47:44.577Z,0.70
2023-03-24T12:48:44.548Z,0.90
2023-03-24T12:49:44.500Z,0.90
2023-03-24T12:50:44.477Z,1.00
2023-03-24T12:51:44.470Z,1.00
2023-03-24T12:52:45.898Z,0.70
2023-03-24T12:53:44.485Z,0.90
2023-03-24T12:54:44.449Z,0.70
2023-03-24T12:55:44.415Z,1.00
2023-03-24T12:56:44.482Z,0.90
2023-03-24T12:57:44.395Z,1.00
2023-03-24T12:58:44.388Z,0.90
2023-03-24T12:59:44.414Z,0.70
2023-03-24T13:00:44.371Z,0.80
2023-03-24T13:01:44.338Z,0.80
2023-03-24T13:02:44.405Z,0.90
2023-03-24T13:03:44.316Z,0.80
2023-03-24T13:04:44.310Z,0.90
2023-03-24T13:05:44.283Z,0.90
2023-03-24T13:06:44.267Z,1.10
2023-03-24T13:07:44.256Z,1.10
2023-03-24T13:08:44.260Z,0.80
2023-03-24T13:09:44.263Z,0.80
2023-03-24T13:10:44.218Z,0.80
2023-03-24T13:11:44.265Z,0.90
2023-03-24T13:12:44.197Z,1.00
2023-03-24T13:13:44.181Z,0.90
2023-03-24T13:14:44.183Z,1.00
2023-03-24T13:15:44.178Z,0.60
2023-03-24T13:16:44.175Z,0.70
2023-03-24T13:17:45.149Z,0.80
2023-03-24T13:18:44.113Z,0.80
2023-03-24T13:19:44.157Z,0.90